Kingston Norman Rogers Airport
CYGK : now visible

Airfield :











YOU CAN JOIN US ON...

 
LOGIN :

Register | Disclaimer

   EN    FR    IT 

 









Legend :    VFR   Marginal VFR   IFR   Intensive IFR   Very Intensive IFR
Visi :
Ceiling :
>= 8 km
>= 3000ft
5 to 8 km
1000 to 3000 ft
1500m to 5 km
500 to 1000 ft
800 to 1500m
200 to 500 ft
< 800m
< 200 ft
Symbols :   Thunderstorms  Fog  Heavy snow  Heavy precipitations  Wind > 20 kt






- Airport Elevation : 305 ft
- IATA code : YGK


CYGK - Kingston Norman Rogers

CURRENT METAR :
  • 212046Z 36003KT 260V030 15SM VCSH BKN030 01/M04 A2983 RMK SC7 SLP107

EXPIRED METARs :
  • 212000Z 31008KT 12SM -SN SCT025 OVC035 01/M04 A2984 RMK SC4SC4 SLP110
  • 211900Z 32008G15KT 15SM OVC025 M00/M05 A2985 RMK SC8 SLP113
  • 211819Z 35012KT 10SM BKN024 OVC038 M00/M05 A2985 RMK SC5SC3 SLP113

TAF TAF CYGK
Valid from the 21 at 20:00 until the 22 at 03:00 UTC


211941Z 2120/2203 32012KT P6SM BKN040 BKN090
TEMPO 2120/2203 BKN020 OVC040 RMK NXT FCST WILL BE ISSUED AT 221145Z
CZYZ FIR / North America



MET'MAP, your aeronautical weather chart ! - Copyright ORBIFLY December 2007 - Disclaimer

ORBIFLY MET'MAP TEAM :

Programming & Development : Alexandra Zaïnal
Concept & original design : Baudouin d'Aumeries
Assistance for programming : Marc-Olivier Méhu
Technical & hardware support : Manuel Goepfert

Contact : metmap@orbifly.com




SOURCES & CREDITS :

   NOAA       Earth
Advisory